Date,TemperatureHighF,TemperatureAvgF,TemperatureLowF,DewpointHighF,DewpointAvgF,DewpointLowF,HumidityHigh,HumidityAvg,HumidityLow,PressureMaxIn,PressureMinIn,WindSpeedMaxMPH,WindSpeedAvgMPH,GustSpeedMaxMPH,PrecipitationSumIn
2013-10-1,74,60,50,63,55,47,90,83,60,30.05,29.96,5,1,9,0.00
2013-10-2,76,59,47,67,54,44,90,85,66,30.09,29.98,8,1,10,0.01
2013-10-3,79,60,44,69,55,41,90,85,69,30.10,29.98,7,1,10,0.06
2013-10-4,77,68,62,69,63,58,89,85,72,30.04,29.98,7,1,11,0.04
2013-10-5,81,68,57,70,63,54,89,85,66,30.05,29.93,9,1,9,0.10
2013-10-6,80,72,65,70,65,62,89,80,61,29.93,29.66,14,2,17,0.00
2013-10-7,72,55,44,63,50,41,90,83,67,30.09,29.65,10,2,14,0.84
2013-10-8,65,49,37,51,42,34,90,78,48,30.33,30.09,5,0,7,0.01
2013-10-9,69,49,32,49,39,29,90,74,33,30.38,30.26,6,1,8,0.00
2013-10-10,72,48,33,52,39,30,90,75,26,30.28,30.13,5,0,8,0.00
2013-10-11,74,49,37,53,42,34,90,79,35,30.15,30.06,3,0,7,0.01
2013-10-12,77,61,40,60,50,37,89,71,47,30.16,30.07,5,1,9,0.00
2013-10-13,73,63,57,61,58,54,89,84,66,30.26,30.20,6,1,11,0.82
2013-10-14,64,54,40,54,48,37,90,81,59,30.34,30.25,9,1,10,0.04
2013-10-15,70,55,36,60,50,33,90,84,69,30.26,29.94,8,2,10,0.01
2013-10-16,64,60,50,60,56,47,90,87,81,29.94,29.77,13,2,14,0.87
2013-10-17,61,49,39,52,45,36,90,86,65,29.90,29.72,5,1,11,0.37
2013-10-18,60,51,46,46,43,42,90,76,50,29.95,29.82,12,2,15,0.06
2013-10-19,55,48,41,47,43,38,90,83,70,29.92,29.68,9,2,14,0.44
2013-10-20,55,44,36,43,39,34,90,81,59,30.00,29.88,10,1,16,0.06
2013-10-21,62,54,47,49,41,38,88,63,45,30.00,29.81,14,4,20,0.02
2013-10-22,49,42,33,46,36,30,90,80,55,29.91,29.80,9,1,14,0.22
2013-10-23,45,38,33,39,34,30,90,88,77,29.89,29.77,7,0,11,0.14
2013-10-24,41,35,33,36,32,30,91,89,83,30.11,29.89,8,2,12,0.49
2013-10-25,43,38,34,39,34,30,90,84,70,30.29,30.11,9,1,13,0.27
2013-10-26,44,39,34,36,30,28,89,70,57,30.21,29.85,16,3,23,0.06
2013-10-27,44,38,28,38,34,25,90,85,71,30.10,29.93,9,1,9,0.05
2013-10-28,52,36,24,43,32,22,90,84,66,30.37,30.10,6,0,8,0.00
2013-10-29,54,39,28,40,33,25,90,79,50,30.44,30.30,5,0,9,0.01
2013-10-30,64,46,30,43,38,27,90,74,40,30.30,30.08,8,1,8,0.00
2013-10-31,65,58,43,59,54,40,89,87,79,30.08,29.35,11,4,22,0.28